Time;durP1;ratioP1;P1;durP2;ratioP2;P2;SDS_P1;SDS_P2;PMS_P1;PMS_P2;Temp;Humidity;BMP_temperature;BMP_pressure;BME280_temperature;BME280_humidity;BME280_pressure;Samples;Min_cycle;Max_cycle;Signal;HPM_P1;HPM_P2
2022/08/19 00:01:37;;;;;;;13.83;11.47;;;24.70;65.70;;;;;;7378288;19;20428;-47
2022/08/19 00:04:14;;;;;;;15.77;12.43;;;24.80;65.80;;;;;;7379682;19;20743;-47
2022/08/19 00:06:46;;;;;;;12.60;11.17;;;24.70;65.70;;;;;;7376157;19;21006;-47
2022/08/19 00:09:18;;;;;;;14.10;12.60;;;24.70;65.80;;;;;;7380776;19;20371;-47
2022/08/19 00:11:48;;;;;;;13.37;11.80;;;24.60;66.00;;;;;;7375131;19;20396;-48
2022/08/19 00:14:20;;;;;;;13.20;11.23;;;24.60;66.50;;;;;;7375214;19;20827;-47
2022/08/19 00:16:51;;;;;;;12.27;10.97;;;24.60;66.60;;;;;;7379277;19;20384;-47
2022/08/19 00:19:24;;;;;;;14.00;10.87;;;24.60;66.50;;;;;;7380945;19;20451;-47
2022/08/19 00:21:55;;;;;;;14.23;11.83;;;24.80;66.10;;;;;;7372980;19;20368;-47
2022/08/19 00:24:25;;;;;;;14.27;11.73;;;24.80;65.60;;;;;;7375393;19;20972;-47
2022/08/19 00:26:56;;;;;;;13.80;11.23;;;24.80;65.50;;;;;;7377281;19;20372;-48
2022/08/19 00:29:27;;;;;;;14.20;12.27;;;24.80;65.40;;;;;;7375202;19;20398;-48
2022/08/19 00:31:58;;;;;;;15.87;12.60;;;24.70;65.70;;;;;;7386575;19;20400;-48
2022/08/19 00:34:30;;;;;;;15.07;12.50;;;24.60;66.00;;;;;;7385075;19;20494;-47
2022/08/19 00:37:01;;;;;;;13.73;11.90;;;24.60;66.50;;;;;;7384506;19;20380;-47
2022/08/19 00:39:30;;;;;;;13.93;12.10;;;24.60;66.50;;;;;;7390109;19;20372;-46
2022/08/19 00:42:00;;;;;;;15.17;11.67;;;24.60;66.50;;;;;;7381654;19;20388;-46
2022/08/19 00:44:31;;;;;;;13.63;11.70;;;24.60;67.10;;;;;;7382126;19;20834;-46
2022/08/19 00:47:03;;;;;;;13.23;11.83;;;24.60;66.50;;;;;;7382027;19;20420;-46
2022/08/19 00:49:38;;;;;;;15.17;11.90;;;24.50;66.60;;;;;;7387246;19;20384;-46
2022/08/19 00:52:12;;;;;;;19.00;12.10;;;24.60;67.00;;;;;;7362635;19;20384;-46
2022/08/19 00:54:42;;;;;;;19.37;13.37;;;24.60;67.10;;;;;;7381969;19;20937;-46
2022/08/19 00:57:16;;;;;;;13.30;11.77;;;24.50;67.10;;;;;;7387079;19;20375;-46
2022/08/19 00:59:54;;;;;;;13.23;11.73;;;24.40;67.90;;;;;;7386439;19;20769;-46
2022/08/19 01:02:23;;;;;;;15.07;12.07;;;24.30;69.30;;;;;;7384396;19;20997;-47
2022/08/19 01:04:55;;;;;;;13.87;12.37;;;24.30;68.40;;;;;;7378096;19;20961;-46
2022/08/19 01:07:28;;;;;;;14.70;11.73;;;24.40;68.30;;;;;;7383515;19;20722;-46
2022/08/19 01:09:57;;;;;;;12.53;10.00;;;24.40;68.10;;;;;;7386424;19;20375;-47
2022/08/19 01:12:26;;;;;;;13.40;11.53;;;24.50;68.00;;;;;;7386314;19;20856;-47
2022/08/19 01:14:57;;;;;;;16.30;12.37;;;24.40;67.70;;;;;;7383286;19;20376;-47
2022/08/19 01:17:26;;;;;;;16.07;13.50;;;24.40;67.90;;;;;;7378188;19;20406;-47
2022/08/19 01:19:58;;;;;;;13.93;11.57;;;24.40;67.90;;;;;;7385362;19;20377;-48
2022/08/19 01:22:35;;;;;;;13.47;11.20;;;24.40;68.00;;;;;;7385792;19;20384;-47
2022/08/19 01:25:06;;;;;;;16.17;13.53;;;24.40;67.90;;;;;;7388525;19;20925;-47
2022/08/19 01:27:41;;;;;;;17.90;12.17;;;24.40;68.10;;;;;;7385032;19;20447;-47
2022/08/19 01:30:14;;;;;;;17.10;12.40;;;24.40;68.20;;;;;;7388493;19;20372;-47
2022/08/19 01:32:43;;;;;;;14.77;11.73;;;24.40;68.10;;;;;;7385127;19;20460;-48
2022/08/19 01:35:16;;;;;;;15.57;13.23;;;24.40;68.30;;;;;;7380533;19;20379;-47
2022/08/19 01:37:52;;;;;;;13.50;11.00;;;24.40;68.30;;;;;;7387876;19;20414;-48
2022/08/19 01:40:25;;;;;;;11.93;10.67;;;24.40;68.10;;;;;;7382648;19;20474;-47
2022/08/19 01:42:55;;;;;;;14.83;12.33;;;24.40;68.40;;;;;;7384122;19;20367;-47
2022/08/19 01:45:27;;;;;;;13.37;11.87;;;24.30;68.50;;;;;;7382234;19;20388;-47
2022/08/19 01:47:57;;;;;;;16.90;13.07;;;24.40;68.50;;;;;;7379983;19;20766;-47
2022/08/19 01:50:27;;;;;;;15.90;13.03;;;24.40;68.40;;;;;;7380168;19;20779;-47
2022/08/19 01:52:59;;;;;;;15.00;12.20;;;24.30;68.60;;;;;;7382877;19;20385;-47
2022/08/19 01:55:29;;;;;;;16.80;13.10;;;24.40;68.80;;;;;;7382528;19;20412;-47
2022/08/19 01:58:02;;;;;;;14.37;12.87;;;24.40;68.70;;;;;;7384257;19;20384;-48
2022/08/19 02:00:34;;;;;;;16.03;12.93;;;24.40;68.60;;;;;;7376244;19;20462;-47
2022/08/19 02:03:03;;;;;;;15.23;12.67;;;24.30;68.80;;;;;;7386323;19;20368;-47
2022/08/19 02:05:33;;;;;;;16.73;13.80;;;24.40;68.90;;;;;;7383513;19;20970;-47
2022/08/19 02:08:08;;;;;;;16.53;13.93;;;24.30;69.50;;;;;;7383976;19;20364;-48
2022/08/19 02:10:42;;;;;;;15.97;13.00;;;24.30;69.50;;;;;;7383241;19;20379;-47
2022/08/19 02:13:13;;;;;;;17.00;14.90;;;24.20;69.80;;;;;;7383074;19;20931;-48
2022/08/19 02:15:42;;;;;;;18.10;13.73;;;24.10;70.20;;;;;;7383282;19;20424;-47
2022/08/19 02:18:12;;;;;;;15.57;12.87;;;24.20;70.10;;;;;;7386862;19;20383;-47
2022/08/19 02:20:44;;;;;;;16.23;13.40;;;24.20;70.30;;;;;;7384594;19;20372;-47
2022/08/19 02:23:17;;;;;;;16.10;13.53;;;24.10;70.60;;;;;;7385743;19;20384;-47
2022/08/19 02:25:48;;;;;;;19.13;15.20;;;24.20;70.50;;;;;;7384499;19;21709;-47
2022/08/19 02:28:18;;;;;;;18.67;14.50;;;24.20;70.70;;;;;;7379428;19;20388;-47
2022/08/19 02:30:48;;;;;;;17.73;14.70;;;24.10;71.00;;;;;;7376876;19;20376;-47
2022/08/19 02:33:20;;;;;;;19.83;15.00;;;24.00;71.80;;;;;;7380089;19;20376;-48
2022/08/19 02:35:51;;;;;;;16.30;13.80;;;23.80;72.70;;;;;;7380172;19;20393;-47
2022/08/19 02:38:27;;;;;;;19.10;14.00;;;23.90;72.70;;;;;;7382676;19;20365;-48
2022/08/19 02:41:00;;;;;;;18.40;14.03;;;23.90;72.90;;;;;;7379516;19;20382;-47
2022/08/19 02:43:31;;;;;;;17.73;14.37;;;23.90;72.90;;;;;;7379868;19;20375;-47
2022/08/19 02:46:04;;;;;;;14.93;12.20;;;24.00;72.70;;;;;;7380057;19;20375;-47
2022/08/19 02:48:34;;;;;;;17.30;13.87;;;24.00;72.30;;;;;;7383847;19;20380;-47
2022/08/19 02:51:06;;;;;;;19.23;15.10;;;24.10;71.90;;;;;;7378781;19;20380;-47
2022/08/19 02:53:38;;;;;;;19.07;14.80;;;24.10;71.80;;;;;;7383961;19;20372;-47
2022/08/19 02:56:09;;;;;;;21.63;16.17;;;24.00;72.60;;;;;;7381130;19;20376;-47
2022/08/19 02:58:39;;;;;;;21.50;15.10;;;24.00;72.70;;;;;;7382505;19;20384;-47
2022/08/19 03:01:10;;;;;;;20.00;15.47;;;23.90;73.00;;;;;;7379180;19;20428;-47
2022/08/19 03:03:39;;;;;;;20.37;15.13;;;23.80;73.80;;;;;;7375035;19;20403;-47
2022/08/19 03:06:12;;;;;;;20.00;14.40;;;23.70;74.30;;;;;;7381220;19;20383;-47
2022/08/19 03:08:46;;;;;;;20.43;15.30;;;23.80;74.00;;;;;;7379857;19;20471;-47
2022/08/19 03:11:17;;;;;;;20.23;16.23;;;23.90;74.70;;;;;;7382491;19;20902;-47
2022/08/19 03:13:48;;;;;;;19.87;16.10;;;23.80;75.40;;;;;;7382567;19;20910;-47
2022/08/19 03:16:19;;;;;;;20.47;17.63;;;23.70;77.20;;;;;;7380369;19;20957;-47
2022/08/19 03:18:48;;;;;;;20.50;16.03;;;23.70;77.00;;;;;;7382556;19;20389;-48
2022/08/19 03:21:19;;;;;;;22.83;17.07;;;23.70;77.90;;;;;;7379341;19;20387;-47
2022/08/19 03:23:51;;;;;;;18.30;13.30;;;23.70;78.10;;;;;;7382092;19;20387;-47
2022/08/19 03:26:20;;;;;;;22.33;16.23;;;23.80;77.50;;;;;;7376123;19;20459;-47
2022/08/19 03:28:50;;;;;;;20.90;16.70;;;23.70;77.40;;;;;;7383221;19;20765;-47
2022/08/19 03:31:22;;;;;;;19.47;14.73;;;23.70;77.50;;;;;;7379695;19;20380;-47
2022/08/19 03:33:52;;;;;;;23.03;17.83;;;23.70;77.70;;;;;;7381029;19;20425;-47
2022/08/19 03:36:25;;;;;;;21.67;16.37;;;23.60;77.10;;;;;;7382922;19;20376;-47
2022/08/19 03:38:59;;;;;;;20.53;16.80;;;23.50;78.30;;;;;;7380975;19;20414;-47
2022/08/19 03:41:33;;;;;;;19.90;16.63;;;23.50;78.30;;;;;;7382533;19;20380;-47
2022/08/19 03:44:02;;;;;;;21.40;17.57;;;23.50;78.50;;;;;;7379747;19;20945;-47
2022/08/19 03:46:34;;;;;;;24.07;17.87;;;23.30;79.50;;;;;;7380146;19;20372;-47
2022/08/19 03:49:07;;;;;;;21.97;17.93;;;23.20;80.10;;;;;;7378192;19;20389;-47
2022/08/19 03:51:38;;;;;;;21.47;16.87;;;23.20;80.40;;;;;;7380810;19;20415;-47
2022/08/19 03:54:15;;;;;;;21.17;16.60;;;23.30;80.00;;;;;;7381253;19;20946;-47
2022/08/19 03:56:46;;;;;;;26.80;19.87;;;23.30;79.50;;;;;;7381484;19;20722;-47
2022/08/19 03:59:20;;;;;;;24.43;18.70;;;23.40;79.30;;;;;;7381988;19;20854;-47
2022/08/19 04:01:49;;;;;;;22.33;17.53;;;23.30;79.60;;;;;;7376061;19;20463;-47
2022/08/19 04:04:19;;;;;;;21.83;16.43;;;23.30;80.00;;;;;;7378782;19;20982;-47
2022/08/19 04:06:51;;;;;;;23.43;18.50;;;23.10;80.40;;;;;;7380205;19;20380;-47
2022/08/19 04:09:26;;;;;;;20.90;17.07;;;23.10;81.20;;;;;;7379858;19;20380;-47
2022/08/19 04:11:58;;;;;;;26.60;18.50;;;23.20;81.90;;;;;;7380559;19;21009;-46
2022/08/19 04:14:30;;;;;;;19.07;16.50;;;23.20;80.80;;;;;;7381922;19;20393;-46
2022/08/19 04:17:00;;;;;;;23.53;18.13;;;23.20;80.60;;;;;;7375928;19;20383;-46
2022/08/19 04:19:31;;;;;;;22.70;17.93;;;23.20;80.30;;;;;;7380766;19;20376;-47
2022/08/19 04:22:01;;;;;;;23.63;18.90;;;23.30;80.00;;;;;;7381106;19;20871;-46
2022/08/19 04:24:33;;;;;;;20.77;16.73;;;23.30;79.40;;;;;;7379810;19;20375;-46
2022/08/19 04:27:03;;;;;;;27.23;19.70;;;23.30;79.50;;;;;;7381856;19;20384;-46
2022/08/19 04:29:33;;;;;;;25.63;19.80;;;23.10;80.10;;;;;;7378047;19;20364;-46
2022/08/19 04:32:05;;;;;;;24.20;19.30;;;23.10;81.00;;;;;;7382884;19;20372;-46
2022/08/19 04:34:35;;;;;;;23.40;16.60;;;23.00;81.60;;;;;;7379769;19;20383;-46
2022/08/19 04:37:12;;;;;;;21.67;17.37;;;23.00;81.60;;;;;;7376266;19;20364;-46
2022/08/19 04:42:41;;;;;;;25.80;20.43;;;23.10;81.40;;;;;;7379582;19;20376;-46
2022/08/19 04:45:17;;;;;;;28.60;21.70;;;23.10;80.50;;;;;;7380582;19;20394;-46
2022/08/19 04:47:47;;;;;;;28.23;20.13;;;23.20;80.10;;;;;;7380256;19;20376;-46
2022/08/19 04:50:19;;;;;;;25.53;20.30;;;23.20;80.00;;;;;;7378856;19;20376;-46
2022/08/19 04:52:48;;;;;;;27.17;20.50;;;23.20;79.90;;;;;;7380957;19;20461;-46
2022/08/19 04:55:20;;;;;;;24.87;20.00;;;23.30;79.90;;;;;;7377125;19;20391;-46
2022/08/19 04:57:51;;;;;;;25.80;21.03;;;23.20;80.00;;;;;;7379979;19;20729;-46
2022/08/19 05:00:20;;;;;;;25.13;19.17;;;23.20;80.10;;;;;;7375745;19;20452;-46
2022/08/19 05:02:50;;;;;;;21.23;16.43;;;23.30;80.00;;;;;;7373841;19;20492;-46
2022/08/19 05:05:22;;;;;;;23.47;16.97;;;23.30;79.90;;;;;;7376707;19;20547;-46
2022/08/19 05:07:55;;;;;;;24.50;19.93;;;23.30;79.10;;;;;;7376711;19;20363;-46
2022/08/19 05:10:30;;;;;;;25.40;19.97;;;23.30;79.60;;;;;;7378031;19;20839;-46
2022/08/19 05:13:00;;;;;;;22.73;19.90;;;23.30;79.60;;;;;;7371609;19;20372;-46
2022/08/19 05:15:29;;;;;;;20.30;16.97;;;23.40;79.30;;;;;;7381942;19;20402;-46
2022/08/19 05:23:34;;;;;;;24.43;18.80;;;23.60;78.00;;;;;;7386445;19;20424;-47
2022/08/19 05:26:10;;;;;;;24.70;19.50;;;23.70;77.10;;;;;;7385369;19;20404;-46
2022/08/19 05:28:39;;;;;;;24.20;19.30;;;23.70;77.40;;;;;;7386979;19;20950;-47
2022/08/19 05:31:09;;;;;;;21.73;18.10;;;23.70;77.60;;;;;;7389378;19;20372;-47
2022/08/19 05:33:42;;;;;;;24.07;18.30;;;23.70;77.40;;;;;;7388357;19;20793;-46
2022/08/19 05:36:11;;;;;;;21.77;18.97;;;23.70;77.70;;;;;;7387612;19;20962;-47
2022/08/19 05:38:41;;;;;;;24.03;19.63;;;23.70;77.20;;;;;;7389704;19;20771;-47
2022/08/19 05:41:18;;;;;;;25.00;19.30;;;23.70;77.70;;;;;;7387924;19;20384;-46
2022/08/19 05:43:48;;;;;;;23.97;18.53;;;23.60;77.80;;;;;;7387859;19;20372;-46
2022/08/19 05:46:22;;;;;;;29.50;21.20;;;23.60;78.20;;;;;;7390750;19;20368;-47
2022/08/19 05:48:55;;;;;;;24.30;19.73;;;23.50;78.70;;;;;;7389985;19;20368;-46
2022/08/19 05:51:25;;;;;;;22.63;18.60;;;23.50;78.50;;;;;;7385125;19;20376;-47
2022/08/19 05:53:55;;;;;;;24.67;20.80;;;23.60;78.80;;;;;;7389301;19;20399;-46
2022/08/19 05:56:27;;;;;;;24.80;18.93;;;23.60;78.50;;;;;;7384853;19;20431;-46
2022/08/19 05:58:56;;;;;;;21.70;16.67;;;23.50;79.00;;;;;;7385817;19;21112;-46
2022/08/19 06:01:27;;;;;;;22.37;18.77;;;23.50;79.00;;;;;;7384684;19;21365;-46
2022/08/19 06:03:57;;;;;;;20.17;17.27;;;23.50;79.00;;;;;;7388887;19;20383;-47
2022/08/19 06:06:29;;;;;;;22.00;17.40;;;23.50;79.20;;;;;;7380653;19;20949;-46
2022/08/19 06:08:59;;;;;;;22.50;17.90;;;23.50;78.50;;;;;;7382705;19;20914;-47
2022/08/19 06:11:37;;;;;;;18.93;15.80;;;23.60;78.30;;;;;;7380816;19;20449;-46
2022/08/19 06:14:09;;;;;;;23.20;19.17;;;23.60;78.30;;;;;;7387905;19;20412;-46
2022/08/19 06:16:40;;;;;;;22.57;18.70;;;23.50;78.50;;;;;;7386937;19;20499;-47
2022/08/19 06:19:12;;;;;;;25.93;19.87;;;23.50;78.80;;;;;;7383936;19;20910;-46
2022/08/19 06:21:43;;;;;;;24.30;19.67;;;23.50;78.70;;;;;;7385956;19;20393;-46
2022/08/19 06:24:14;;;;;;;28.83;19.13;;;23.50;79.00;;;;;;7383851;19;20409;-46
2022/08/19 06:26:48;;;;;;;23.57;18.40;;;23.40;79.10;;;;;;7384425;19;20887;-47
2022/08/19 06:29:20;;;;;;;29.00;18.23;;;23.40;79.70;;;;;;7384623;19;20372;-46
2022/08/19 06:31:55;;;;;;;21.77;17.10;;;23.30;80.50;;;;;;7385114;19;20409;-47
2022/08/19 06:34:27;;;;;;;23.83;19.80;;;23.40;80.80;;;;;;7387518;19;20660;-47
2022/08/19 06:37:01;;;;;;;20.10;15.73;;;23.40;80.80;;;;;;7384996;19;20922;-48
2022/08/19 06:39:33;;;;;;;25.93;19.37;;;23.50;81.00;;;;;;7385401;19;20413;-47
2022/08/19 06:42:11;;;;;;;26.23;20.00;;;23.60;83.10;;;;;;7385915;19;20954;-47
2022/08/19 06:44:42;;;;;;;22.37;19.07;;;23.70;82.70;;;;;;7372494;19;20368;-48
2022/08/19 06:47:16;;;;;;;22.67;19.10;;;23.60;83.20;;;;;;7365617;19;20367;-48
2022/08/19 06:49:46;;;;;;;20.67;17.73;;;23.60;84.20;;;;;;7367102;19;20380;-47
2022/08/19 06:52:16;;;;;;;26.40;20.20;;;23.60;84.20;;;;;;7383511;19;20384;-47
2022/08/19 06:54:45;;;;;;;25.50;20.10;;;23.60;84.40;;;;;;7377346;19;20391;-47
2022/08/19 06:57:17;;;;;;;27.60;20.37;;;23.40;85.40;;;;;;7377812;19;20914;-47
2022/08/19 06:59:47;;;;;;;21.27;18.27;;;23.30;87.90;;;;;;7381770;19;20368;-47
2022/08/19 07:02:19;;;;;;;21.97;19.57;;;23.30;87.70;;;;;;7381724;19;20380;-48
2022/08/19 07:04:48;;;;;;;22.30;17.93;;;23.30;88.60;;;;;;7381420;19;20953;-47
2022/08/19 07:07:18;;;;;;;21.57;17.90;;;23.40;88.40;;;;;;7382142;19;20379;-48
2022/08/19 07:09:48;;;;;;;23.37;18.87;;;23.40;89.00;;;;;;7369359;19;20379;-48
2022/08/19 07:12:20;;;;;;;26.27;19.63;;;23.50;88.00;;;;;;7381681;19;20376;-47
2022/08/19 07:14:50;;;;;;;25.77;19.80;;;23.30;88.30;;;;;;7382997;19;20377;-47
2022/08/19 07:17:19;;;;;;;21.97;17.10;;;23.20;88.40;;;;;;7382429;19;20922;-48
2022/08/19 07:19:50;;;;;;;26.33;19.60;;;23.10;90.00;;;;;;7373866;19;20364;-47
2022/08/19 07:22:22;;;;;;;19.53;16.37;;;23.10;90.40;;;;;;7370902;19;20368;-48
2022/08/19 07:24:52;;;;;;;25.37;17.90;;;23.10;89.60;;;;;;7382909;19;20801;-47
2022/08/19 07:27:24;;;;;;;24.37;18.80;;;23.00;89.80;;;;;;7365385;19;20368;-47
2022/08/19 07:29:54;;;;;;;22.73;18.20;;;23.00;89.40;;;;;;7373231;19;20411;-46
2022/08/19 07:32:26;;;;;;;19.27;16.37;;;22.80;90.90;;;;;;7377681;19;21748;-47
2022/08/19 07:34:55;;;;;;;25.10;18.60;;;22.80;91.20;;;;;;7376516;19;20758;-47
2022/08/19 07:37:26;;;;;;;19.57;17.47;;;22.90;90.60;;;;;;7374195;19;20376;-46
2022/08/19 07:39:56;;;;;;;18.60;16.43;;;23.00;90.10;;;;;;7373417;19;20372;-46
2022/08/19 07:42:29;;;;;;;21.97;17.70;;;22.90;90.10;;;;;;7377021;19;20873;-46
2022/08/19 07:44:58;;;;;;;19.80;16.07;;;22.80;90.30;;;;;;7376710;19;20377;-47
2022/08/19 07:47:30;;;;;;;24.80;18.30;;;22.90;89.50;;;;;;7371923;19;20383;-46
2022/08/19 07:50:00;;;;;;;24.10;18.20;;;23.10;89.10;;;;;;7381224;19;20768;-47
2022/08/19 07:52:31;;;;;;;22.63;18.20;;;23.00;88.90;;;;;;7376691;19;20380;-47
2022/08/19 07:55:03;;;;;;;20.40;17.80;;;23.00;89.20;;;;;;7375906;19;20945;-46
2022/08/19 07:57:38;;;;;;;20.70;15.93;;;22.90;89.70;;;;;;7375849;19;20410;-46
2022/08/19 08:00:09;;;;;;;22.13;16.67;;;23.00;89.90;;;;;;7374131;19;20433;-47
2022/08/19 08:02:42;;;;;;;24.53;16.20;;;22.90;89.90;;;;;;7378971;19;20879;-46
2022/08/19 08:10:36;;;;;;;22.30;17.53;;;23.00;90.90;;;;;;7370726;19;20725;-47
2022/08/19 08:13:08;;;;;;;22.00;17.90;;;23.00;91.20;;;;;;7370435;19;20368;-47
2022/08/19 08:15:39;;;;;;;20.60;17.40;;;23.00;91.50;;;;;;7372941;19;20408;-46
2022/08/19 08:18:09;;;;;;;24.57;19.57;;;23.00;92.30;;;;;;7361764;19;20757;-47
2022/08/19 08:20:38;;;;;;;20.70;17.57;;;22.90;93.60;;;;;;7372108;19;20368;-46
2022/08/19 08:25:53;;;;;;;20.13;15.90;;;22.90;93.00;;;;;;7369634;19;20903;-46
2022/08/19 08:28:29;;;;;;;22.10;16.60;;;22.90;93.40;;;;;;7375591;19;20384;-47
2022/08/19 08:31:00;;;;;;;22.70;17.30;;;22.90;93.40;;;;;;7371082;19;20910;-48
2022/08/19 08:33:31;;;;;;;21.30;17.27;;;23.00;94.00;;;;;;7375080;19;20821;-48
2022/08/19 08:36:01;;;;;;;22.30;17.27;;;22.90;93.20;;;;;;7372920;19;20383;-47
2022/08/19 08:38:31;;;;;;;24.40;18.37;;;22.90;93.30;;;;;;7352412;19;20376;-47
2022/08/19 08:41:06;;;;;;;27.47;19.03;;;22.90;94.80;;;;;;7365127;19;20376;-47
2022/08/19 08:43:42;;;;;;;21.80;17.97;;;22.80;92.90;;;;;;7374247;19;20405;-47
2022/08/19 08:46:16;;;;;;;22.23;17.70;;;22.70;93.80;;;;;;7375325;19;20451;-46
2022/08/19 08:48:54;;;;;;;21.20;17.63;;;22.60;95.10;;;;;;7367935;19;20460;-47
2022/08/19 08:51:28;;;;;;;22.13;18.27;;;22.60;95.90;;;;;;7373224;19;20463;-47
2022/08/19 08:53:59;;;;;;;24.87;17.90;;;22.40;98.20;;;;;;7379284;19;20778;-47
2022/08/19 08:56:31;;;;;;;19.90;16.60;;;22.50;99.20;;;;;;7381823;19;20384;-47
2022/08/19 08:59:09;;;;;;;21.43;18.00;;;22.60;97.10;;;;;;7371961;19;20391;-48
2022/08/19 09:01:39;;;;;;;22.17;18.07;;;22.60;96.40;;;;;;7372717;19;20423;-46
2022/08/19 09:04:10;;;;;;;26.43;18.80;;;22.70;96.50;;;;;;7378410;19;20419;-46
2022/08/19 09:06:47;;;;;;;22.90;17.97;;;22.80;95.90;;;;;;7383527;19;20713;-46
2022/08/19 09:09:20;;;;;;;20.27;17.30;;;23.00;96.80;;;;;;7381019;19;21171;-46
2022/08/19 09:12:03;;;;;;;19.90;16.57;;;23.10;96.00;;;;;;7376805;19;20380;-46
2022/08/19 09:14:45;;;;;;;20.63;17.17;;;23.30;95.00;;;;;;7370168;19;20928;-46
2022/08/19 09:17:16;;;;;;;23.30;16.60;;;23.30;94.50;;;;;;7383821;19;21155;-46
2022/08/19 09:19:56;;;;;;;19.37;16.57;;;23.20;94.00;;;;;;7383134;19;20372;-46
2022/08/19 09:22:26;;;;;;;21.10;17.37;;;23.10;95.30;;;;;;7362774;19;20910;-46
2022/08/19 09:24:57;;;;;;;20.97;18.00;;;23.10;95.60;;;;;;7368186;19;20374;-46
2022/08/19 09:27:28;;;;;;;18.80;15.97;;;23.20;95.00;;;;;;7385507;19;20402;-46
2022/08/19 09:30:01;;;;;;;21.27;15.77;;;23.20;94.00;;;;;;7381555;19;20373;-46
2022/08/19 09:32:30;;;;;;;17.57;14.90;;;23.20;94.40;;;;;;7372020;19;20677;-46
2022/08/19 09:35:00;;;;;;;21.53;17.23;;;23.30;93.50;;;;;;7368300;19;20376;-46
2022/08/19 09:37:30;;;;;;;18.77;15.83;;;23.30;94.20;;;;;;7374687;19;20376;-46
2022/08/19 09:39:59;;;;;;;21.23;14.03;;;23.30;93.80;;;;;;7381292;19;20371;-46
2022/08/19 09:42:29;;;;;;;19.33;15.07;;;23.40;93.50;;;;;;7380498;19;20455;-46
2022/08/19 09:45:01;;;;;;;17.20;15.00;;;23.30;94.90;;;;;;7386070;19;20376;-46
2022/08/19 09:47:32;;;;;;;18.73;14.63;;;23.30;95.00;;;;;;7382979;19;20376;-46
2022/08/19 09:50:01;;;;;;;17.10;14.40;;;23.40;93.60;;;;;;7378133;19;20372;-46
2022/08/19 09:52:31;;;;;;;18.30;13.97;;;23.30;93.40;;;;;;7380848;19;20922;-46
2022/08/19 09:55:03;;;;;;;21.43;15.43;;;23.40;93.30;;;;;;7385195;19;20375;-46
2022/08/19 09:57:35;;;;;;;20.30;14.77;;;23.40;93.30;;;;;;7384799;19;20385;-46
2022/08/19 10:00:10;;;;;;;15.70;13.63;;;23.50;93.60;;;;;;7380609;19;20527;-47
2022/08/19 10:02:40;;;;;;;15.50;13.70;;;23.60;93.00;;;;;;7378378;19;20385;-47
2022/08/19 10:07:54;;;;;;;19.50;13.80;;;23.50;93.10;;;;;;7371976;19;20986;-47
2022/08/19 10:10:24;;;;;;;16.20;13.50;;;23.50;93.50;;;;;;7384306;19;20391;-47
2022/08/19 10:12:54;;;;;;;15.63;13.07;;;23.60;92.50;;;;;;7385944;19;20392;-47
2022/08/19 10:15:26;;;;;;;19.27;11.50;;;23.50;92.60;;;;;;7376784;19;20368;-47
2022/08/19 10:17:56;;;;;;;14.33;12.30;;;23.70;91.80;;;;;;7373623;19;20388;-46
2022/08/19 10:20:25;;;;;;;18.10;13.27;;;23.60;91.20;;;;;;7377956;19;20907;-47
2022/08/19 10:22:55;;;;;;;14.00;12.27;;;23.60;91.70;;;;;;7368425;19;20380;-46
2022/08/19 10:25:26;;;;;;;19.80;12.40;;;23.70;92.00;;;;;;7374567;19;20819;-46
2022/08/19 10:27:55;;;;;;;14.80;12.57;;;23.80;91.60;;;;;;7374220;19;20376;-47
2022/08/19 10:30:28;;;;;;;12.63;11.30;;;23.80;92.20;;;;;;7372550;19;20379;-47
2022/08/19 10:32:57;;;;;;;15.70;12.10;;;23.70;92.10;;;;;;7376125;19;20368;-46
2022/08/19 10:35:29;;;;;;;15.63;13.37;;;23.80;92.10;;;;;;7382283;19;20439;-47
2022/08/19 10:37:59;;;;;;;15.67;12.30;;;23.80;92.40;;;;;;7381356;19;20476;-47
2022/08/19 10:40:29;;;;;;;16.47;11.40;;;23.90;92.70;;;;;;7385269;19;20474;-46
2022/08/19 10:42:59;;;;;;;14.30;12.33;;;24.00;93.70;;;;;;7385795;19;20724;-46
2022/08/19 10:45:31;;;;;;;14.80;12.10;;;24.00;91.90;;;;;;7387084;19;20385;-46
2022/08/19 10:48:00;;;;;;;13.40;11.60;;;24.10;90.40;;;;;;7386597;19;20913;-46
2022/08/19 10:53:12;;;;;;;18.40;12.80;;;24.10;91.70;;;;;;7384980;19;20372;-46
2022/08/19 10:58:26;;;;;;;13.43;11.53;;;24.10;91.00;;;;;;7385446;19;20830;-46
2022/08/19 11:01:01;;;;;;;12.00;10.80;;;24.20;90.40;;;;;;7378766;19;20507;-46
2022/08/19 11:03:31;;;;;;;14.43;10.97;;;24.30;87.30;;;;;;7383900;19;20913;-46
2022/08/19 11:06:01;;;;;;;12.07;10.67;;;24.30;86.50;;;;;;7378385;19;20399;-46
2022/08/19 11:08:31;;;;;;;13.37;11.27;;;24.30;86.30;;;;;;7381978;19;20368;-46
2022/08/19 11:11:03;;;;;;;14.63;10.17;;;24.20;85.40;;;;;;7385640;19;20808;-46
2022/08/19 11:13:37;;;;;;;13.00;10.43;;;24.00;86.00;;;;;;7383536;19;20477;-46
2022/08/19 11:16:13;;;;;;;14.13;10.57;;;24.00;87.50;;;;;;7386593;19;20375;-46
2022/08/19 11:18:45;;;;;;;16.00;11.27;;;24.00;87.90;;;;;;7383389;19;20395;-46
2022/08/19 11:21:18;;;;;;;10.67;9.57;;;24.00;86.10;;;;;;7381810;19;20364;-46
2022/08/19 11:23:52;;;;;;;12.93;9.23;;;24.10;87.10;;;;;;7383031;19;20384;-46
2022/08/19 11:26:25;;;;;;;12.30;9.60;;;24.20;84.30;;;;;;7380173;19;20798;-47
2022/08/19 11:28:55;;;;;;;11.90;10.30;;;24.20;84.20;;;;;;7381549;19;20945;-46
2022/08/19 11:31:30;;;;;;;12.10;10.00;;;24.30;83.30;;;;;;7379844;19;20376;-47
2022/08/19 11:34:00;;;;;;;10.20;9.13;;;24.50;82.30;;;;;;7385105;19;20368;-46
2022/08/19 11:36:31;;;;;;;12.40;9.27;;;24.60;80.10;;;;;;7383852;19;20441;-47
2022/08/19 11:39:01;;;;;;;11.03;9.27;;;24.60;80.00;;;;;;7382843;19;20387;-46
2022/08/19 11:41:31;;;;;;;11.30;9.00;;;24.80;79.40;;;;;;7384027;19;20375;-48
2022/08/19 11:44:02;;;;;;;9.20;8.30;;;24.80;78.30;;;;;;7382136;19;20784;-47
2022/08/19 11:46:34;;;;;;;12.90;9.27;;;24.90;77.70;;;;;;7382024;19;20914;-47
2022/08/19 11:49:07;;;;;;;10.90;8.10;;;24.90;77.70;;;;;;7382253;19;20922;-47
2022/08/19 11:51:36;;;;;;;10.90;8.50;;;24.90;77.10;;;;;;7385395;19;20376;-47
2022/08/19 11:54:09;;;;;;;9.10;8.27;;;24.80;75.80;;;;;;7382780;19;20894;-47
2022/08/19 11:56:40;;;;;;;9.57;7.93;;;24.80;75.80;;;;;;7385234;19;20709;-47
2022/08/19 11:59:10;;;;;;;12.10;9.57;;;24.80;76.10;;;;;;7381678;19;21254;-47
2022/08/19 12:01:43;;;;;;;11.30;9.10;;;24.90;75.00;;;;;;7378401;19;20810;-47
2022/08/19 12:04:13;;;;;;;9.93;8.93;;;25.00;74.10;;;;;;7383701;19;20398;-47
2022/08/19 12:06:45;;;;;;;11.03;9.23;;;24.90;73.40;;;;;;7384232;19;20740;-47
2022/08/19 12:09:15;;;;;;;11.07;8.70;;;24.90;72.90;;;;;;7377819;19;20368;-47
2022/08/19 12:11:45;;;;;;;9.23;8.30;;;24.90;73.20;;;;;;7382765;19;20879;-46
2022/08/19 12:14:16;;;;;;;10.37;8.97;;;24.90;73.70;;;;;;7382475;19;20440;-46
2022/08/19 12:16:49;;;;;;;9.17;8.10;;;25.10;73.00;;;;;;7381872;19;20392;-46
2022/08/19 12:19:19;;;;;;;12.17;8.30;;;25.10;73.50;;;;;;7380026;19;20400;-46
2022/08/19 12:21:52;;;;;;;10.47;9.30;;;25.10;73.20;;;;;;7380653;19;20800;-46
2022/08/19 12:24:23;;;;;;;11.13;9.67;;;25.10;72.80;;;;;;7384132;19;20376;-47
2022/08/19 12:26:55;;;;;;;13.67;11.50;;;25.10;73.50;;;;;;7388637;19;20368;-46
2022/08/19 12:29:29;;;;;;;13.30;11.20;;;24.90;77.70;;;;;;7389561;19;20414;-46
2022/08/19 12:32:02;;;;;;;11.57;10.40;;;24.70;80.80;;;;;;7387310;19;20978;-46
2022/08/19 12:34:32;;;;;;;12.97;11.47;;;24.40;90.30;;;;;;7390568;19;20968;-46
2022/08/19 12:37:05;;;;;;;15.13;12.43;;;23.50;98.40;;;;;;7391277;19;20376;-46
2022/08/19 12:39:37;;;;;;;12.23;10.80;;;23.30;99.90;;;;;;7384631;19;21302;-46
2022/08/19 12:42:08;;;;;;;14.53;13.13;;;23.00;99.90;;;;;;7389770;19;20898;-46
2022/08/19 12:44:38;;;;;;;15.93;13.00;;;22.50;99.90;;;;;;7390191;19;20375;-46
2022/08/19 12:47:13;;;;;;;18.40;13.90;;;22.20;99.90;;;;;;7388744;19;20943;-46
2022/08/19 12:49:43;;;;;;;17.60;13.80;;;21.90;99.90;;;;;;7388161;19;20969;-46
2022/08/19 12:52:15;;;;;;;15.33;13.43;;;21.70;99.90;;;;;;7388181;19;20425;-46
2022/08/19 12:54:46;;;;;;;18.60;14.83;;;21.70;99.90;;;;;;7386198;19;20711;-46
2022/08/19 12:57:15;;;;;;;20.23;14.03;;;21.70;99.90;;;;;;7387629;19;20378;-46
2022/08/19 12:59:45;;;;;;;17.93;13.77;;;21.80;99.90;;;;;;7379514;19;20412;-46
2022/08/19 13:02:17;;;;;;;16.80;14.87;;;21.90;99.90;;;;;;7385101;19;20981;-46
2022/08/19 13:04:46;;;;;;;21.13;15.47;;;22.00;99.90;;;;;;7386226;19;20418;-46
2022/08/19 13:07:16;;;;;;;19.30;14.90;;;22.00;99.90;;;;;;7385210;19;20729;-46
2022/08/19 13:09:45;;;;;;;19.60;15.10;;;22.00;99.90;;;;;;7386817;19;20416;-46
2022/08/19 13:12:15;;;;;;;24.90;17.80;;;22.10;99.90;;;;;;7387599;19;20375;-46
2022/08/19 13:14:50;;;;;;;21.53;16.77;;;22.10;99.90;;;;;;7387143;19;20376;-46